Decoded Metar for KAND (ANDERSEN in SC, USA) (IATA:AND) | Meteo·Mobile Aviation Weather
aviador You're here:

KAND Decoded Metar

ANDERSEN in SC, USA
Report Time2019-06-18 13:56:00
UTC Time2019-06-18 14:53:23
Flight Rules mvfr MVFR
Wind230° at 07 kt
W.Decomp.*RWY 23: 7.0 kt HW 0.6 kt RCW
RWY 17: 3.0 kt HW 6.3 kt RCW
Visibility9999 m
Phenomena:N/A
Clouds:Broken 022 Hf
Expected CloudBase > 2,000 ft AGL from Temp-Dew spread
Ceiling2,200 ft
Temp26°C (ISA +13)
Dew Point21°C (74% RH)
QNH1017 hPa
Density Alt2,431 ft
Elevation784 ft
Report Wrong Elevation
Raw Report
KAND 181356Z AUTO 23007KT 10SM BKN022 26/21 A3004 RMK AO2 SLP160
T02560211=

Extra information for KAND:More info

Metar Taf Metar & Taf Last 4 Metars F.Rules Stats Wind Profile Meteogram Temp Stats Airport Information Weather charts Add Link Nearby VenuesMetar ALERT Operation Metar Decoded Social comments

AIRNAV info for KAND